createdAt,value
2024-03-03T00:00:51.224Z,75.35
2024-03-03T00:03:20.369Z,75.01
2024-03-03T00:05:49.982Z,74.84
2024-03-03T00:08:16.854Z,74.84
2024-03-03T00:10:44.100Z,75.31
2024-03-03T00:13:10.966Z,74.96
2024-03-03T00:15:37.846Z,75.00
2024-03-03T00:18:05.025Z,75.00
2024-03-03T00:20:31.935Z,74.98
2024-03-03T00:23:01.366Z,75.15
2024-03-03T00:25:28.318Z,74.83
2024-03-03T00:27:55.218Z,74.89
2024-03-03T00:30:24.440Z,75.35
2024-03-03T00:32:51.306Z,75.33
2024-03-03T00:35:18.150Z,75.23
2024-03-03T00:37:47.273Z,75.57
2024-03-03T00:40:17.293Z,75.45
2024-03-03T00:42:46.537Z,75.25
2024-03-03T00:45:13.478Z,75.46
2024-03-03T00:47:41.414Z,75.61
2024-03-03T00:50:13.263Z,75.45
2024-03-03T00:52:40.090Z,75.47
2024-03-03T00:55:07.267Z,75.68
2024-03-03T00:57:36.397Z,75.16
2024-03-03T01:00:04.112Z,75.22
2024-03-03T01:02:31.033Z,75.36
2024-03-03T01:05:00.041Z,75.64
2024-03-03T01:07:26.965Z,76.06
2024-03-03T01:09:54.098Z,76.49
2024-03-03T01:12:21.092Z,76.53
2024-03-03T01:14:47.896Z,76.65
2024-03-03T01:17:14.889Z,76.57
2024-03-03T01:19:42.122Z,76.65
2024-03-03T01:22:09.293Z,76.64
2024-03-03T01:24:36.273Z,75.92
2024-03-03T01:27:03.878Z,76.27
2024-03-03T01:29:33.261Z,75.68
2024-03-03T01:32:00.136Z,75.34
2024-03-03T01:34:29.443Z,75.45
2024-03-03T01:36:56.315Z,75.41
2024-03-03T01:39:25.483Z,75.47
2024-03-03T01:41:52.525Z,75.60
2024-03-03T01:44:22.802Z,75.39
2024-03-03T01:46:49.922Z,75.72
2024-03-03T01:49:18.356Z,76.23
2024-03-03T01:51:46.292Z,75.95
2024-03-03T01:54:13.636Z,76.40
2024-03-03T01:56:45.024Z,76.55
2024-03-03T01:59:12.331Z,76.63
2024-03-03T02:01:40.075Z,76.57
2024-03-03T02:04:08.943Z,76.48
2024-03-03T02:06:36.381Z,76.42
2024-03-03T02:09:03.770Z,76.40
2024-03-03T02:11:30.968Z,76.66
2024-03-03T02:13:59.193Z,76.37
2024-03-03T02:16:26.463Z,76.63
2024-03-03T02:18:53.464Z,77.04
2024-03-03T02:21:27.785Z,76.79
2024-03-03T02:23:54.643Z,76.90
2024-03-03T02:26:23.331Z,77.25
2024-03-03T02:28:55.153Z,77.46
2024-03-03T02:31:22.862Z,77.60
2024-03-03T02:33:49.837Z,77.40
2024-03-03T02:36:18.948Z,77.48
2024-03-03T02:38:52.194Z,77.54
2024-03-03T02:41:19.173Z,77.68
2024-03-03T02:43:46.030Z,77.54
2024-03-03T02:46:15.074Z,77.88
2024-03-03T02:48:42.477Z,77.84
2024-03-03T02:51:11.920Z,77.53
2024-03-03T02:53:44.334Z,77.30
2024-03-03T02:56:11.175Z,77.26
2024-03-03T02:58:38.057Z,77.40
2024-03-03T03:01:05.199Z,77.13
2024-03-03T03:03:32.600Z,77.40
2024-03-03T03:05:59.700Z,77.51
2024-03-03T03:08:26.822Z,77.92
2024-03-03T03:10:55.493Z,77.42
2024-03-03T03:13:22.392Z,77.64
2024-03-03T03:15:49.280Z,77.20
2024-03-03T03:18:16.474Z,76.77
2024-03-03T03:20:43.534Z,100.00
2024-03-03T03:23:10.860Z,100.00
2024-03-03T03:25:37.730Z,100.00
2024-03-03T03:28:04.908Z,100.00
2024-03-03T03:30:31.799Z,100.00
2024-03-03T03:32:58.702Z,100.00
2024-03-03T03:35:26.212Z,100.00
2024-03-03T03:37:53.076Z,100.00
2024-03-03T03:40:20.074Z,100.00
2024-03-03T03:42:47.043Z,100.00
2024-03-03T03:45:16.140Z,100.00
2024-03-03T03:47:43.057Z,100.00
2024-03-03T03:50:10.239Z,100.00
2024-03-03T03:52:37.034Z,100.00
2024-03-03T03:55:04.173Z,100.00
2024-03-03T03:57:33.374Z,100.00
2024-03-03T04:00:01.369Z,100.00
2024-03-03T04:02:29.120Z,100.00
2024-03-03T04:04:58.650Z,100.00
2024-03-03T04:07:25.509Z,100.00
2024-03-03T04:09:54.557Z,100.00
2024-03-03T04:12:21.408Z,100.00
2024-03-03T04:14:48.563Z,100.00
2024-03-03T04:17:15.380Z,100.00
2024-03-03T04:19:42.260Z,100.00
2024-03-03T04:22:09.291Z,100.00
2024-03-03T04:24:36.162Z,100.00
2024-03-03T04:27:04.743Z,100.00
2024-03-03T04:29:31.781Z,100.00
2024-03-03T04:31:58.616Z,100.00
2024-03-03T04:34:28.548Z,100.00
2024-03-03T04:36:55.526Z,100.00
2024-03-03T04:39:22.441Z,100.00
2024-03-03T04:41:49.337Z,100.00
2024-03-03T04:44:16.224Z,100.00
2024-03-03T04:46:42.981Z,100.00
2024-03-03T04:49:09.936Z,100.00
2024-03-03T04:51:36.784Z,100.00
2024-03-03T04:54:03.772Z,100.00
2024-03-03T04:56:30.599Z,100.00
2024-03-03T04:58:57.575Z,100.00
2024-03-03T05:01:27.840Z,100.00
2024-03-03T05:03:57.663Z,100.00
2024-03-03T05:06:24.545Z,100.00
2024-03-03T05:08:51.398Z,100.00
2024-03-03T05:11:18.289Z,100.00
2024-03-03T05:13:45.231Z,100.00
2024-03-03T05:16:13.255Z,100.00
2024-03-03T05:18:40.208Z,100.00
2024-03-03T05:21:07.050Z,100.00
2024-03-03T05:23:33.932Z,100.00
2024-03-03T05:26:00.941Z,100.00
2024-03-03T05:28:28.808Z,100.00
2024-03-03T05:30:55.746Z,100.00
2024-03-03T05:33:22.689Z,100.00
2024-03-03T05:35:49.528Z,100.00
2024-03-03T05:38:16.573Z,100.00
2024-03-03T05:40:43.474Z,100.00
2024-03-03T05:43:15.146Z,100.00
2024-03-03T05:45:42.189Z,100.00
2024-03-03T05:48:09.284Z,100.00
2024-03-03T05:50:38.274Z,100.00
2024-03-03T05:53:05.278Z,100.00
2024-03-03T05:55:34.902Z,100.00
2024-03-03T05:58:01.719Z,100.00
2024-03-03T06:00:28.817Z,100.00
2024-03-03T06:02:55.689Z,100.00
2024-03-03T06:05:22.539Z,100.00
2024-03-03T06:07:49.352Z,100.00
2024-03-03T06:10:16.338Z,100.00
2024-03-03T06:12:43.205Z,100.00
2024-03-03T06:15:12.360Z,100.00
2024-03-03T06:17:40.261Z,100.00
2024-03-03T06:20:08.328Z,100.00
2024-03-03T06:22:35.248Z,100.00
2024-03-03T06:25:02.193Z,100.00
2024-03-03T06:27:31.792Z,100.00
2024-03-03T06:30:00.953Z,100.00
2024-03-03T06:32:27.987Z,100.00
2024-03-03T06:34:56.912Z,100.00
2024-03-03T06:37:23.803Z,100.00
2024-03-03T06:39:52.789Z,100.00
2024-03-03T06:42:21.831Z,100.00
2024-03-03T06:44:48.706Z,100.00
2024-03-03T06:47:17.803Z,100.00
2024-03-03T06:49:50.057Z,100.00
2024-03-03T06:52:16.988Z,100.00
2024-03-03T06:54:43.864Z,100.00
2024-03-03T06:57:10.708Z,100.00
2024-03-03T06:59:39.582Z,100.00
2024-03-03T07:02:07.488Z,100.00
2024-03-03T07:04:34.956Z,100.00
2024-03-03T07:07:04.065Z,100.00
2024-03-03T07:09:31.176Z,100.00
2024-03-03T07:11:59.317Z,100.00
2024-03-03T07:14:27.603Z,100.00
2024-03-03T07:16:56.862Z,100.00
2024-03-03T07:19:23.919Z,100.00
2024-03-03T07:21:53.091Z,100.00
2024-03-03T07:24:20.388Z,100.00
2024-03-03T07:26:52.133Z,100.00
2024-03-03T07:29:19.147Z,100.00
2024-03-03T07:31:46.028Z,100.00
2024-03-03T07:34:13.024Z,100.00
2024-03-03T07:36:39.915Z,100.00
2024-03-03T07:39:09.195Z,100.00
2024-03-03T07:41:36.084Z,100.00
2024-03-03T07:44:08.059Z,100.00
2024-03-03T07:46:36.844Z,100.00
2024-03-03T07:49:06.778Z,100.00
2024-03-03T07:51:33.665Z,100.00
2024-03-03T07:54:00.613Z,100.00
2024-03-03T07:56:27.878Z,100.00
2024-03-03T07:58:54.776Z,100.00
2024-03-03T08:01:24.045Z,100.00
2024-03-03T08:03:53.110Z,100.00
2024-03-03T08:06:20.057Z,100.00
2024-03-03T08:08:46.950Z,100.00
2024-03-03T08:11:13.953Z,100.00
2024-03-03T08:13:40.829Z,100.00
2024-03-03T08:16:10.524Z,100.00
2024-03-03T08:18:39.804Z,100.00
2024-03-03T08:21:06.750Z,100.00
2024-03-03T08:23:33.873Z,100.00
2024-03-03T08:26:02.806Z,100.00
2024-03-03T08:28:29.781Z,100.00
2024-03-03T08:30:59.656Z,100.00
2024-03-03T08:33:28.309Z,100.00
2024-03-03T08:35:55.209Z,100.00
2024-03-03T08:38:22.127Z,100.00
2024-03-03T08:40:48.966Z,100.00
2024-03-03T08:43:15.802Z,100.00
2024-03-03T08:45:44.896Z,100.00
2024-03-03T08:48:11.815Z,100.00
2024-03-03T08:50:38.739Z,100.00
2024-03-03T08:53:06.780Z,100.00
2024-03-03T08:55:33.724Z,100.00
2024-03-03T08:58:00.671Z,100.00
2024-03-03T09:00:27.523Z,100.00
2024-03-03T09:02:54.330Z,100.00
2024-03-03T09:05:21.501Z,100.00
2024-03-03T09:07:51.480Z,100.00
2024-03-03T09:10:18.427Z,100.00
2024-03-03T09:12:47.499Z,100.00
2024-03-03T09:15:16.778Z,100.00
2024-03-03T09:17:43.980Z,100.00
2024-03-03T09:20:11.373Z,100.00
2024-03-03T09:22:38.564Z,100.00
2024-03-03T09:25:09.014Z,100.00
2024-03-03T09:27:37.084Z,100.00
2024-03-03T09:30:06.655Z,100.00
2024-03-03T09:32:35.199Z,100.00
2024-03-03T09:35:02.183Z,100.00
2024-03-03T09:37:29.136Z,100.00
2024-03-03T09:39:58.005Z,100.00
2024-03-03T09:42:25.466Z,100.00
2024-03-03T09:44:53.398Z,100.00
2024-03-03T09:47:21.895Z,100.00
2024-03-03T09:49:48.831Z,100.00
2024-03-03T09:52:16.312Z,100.00
2024-03-03T09:54:43.676Z,100.00
2024-03-03T09:57:14.033Z,100.00
2024-03-03T09:59:41.934Z,100.00
2024-03-03T10:02:16.960Z,100.00
2024-03-03T10:04:46.728Z,100.00
2024-03-03T10:07:32.513Z,100.00
2024-03-03T10:10:06.415Z,100.00
2024-03-03T10:12:37.153Z,100.00
2024-03-03T10:15:06.314Z,100.00
2024-03-03T10:17:33.285Z,100.00
2024-03-03T10:20:07.609Z,100.00
2024-03-03T10:22:35.852Z,100.00
2024-03-03T10:25:14.694Z,100.00
2024-03-03T10:27:44.182Z,100.00
2024-03-03T10:30:13.647Z,100.00
2024-03-03T10:32:40.988Z,100.00
2024-03-03T10:35:12.876Z,100.00
2024-03-03T10:37:54.261Z,100.00
2024-03-03T10:40:23.079Z,100.00
2024-03-03T10:42:50.470Z,100.00
2024-03-03T10:45:17.840Z,100.00
2024-03-03T10:47:44.887Z,100.00
2024-03-03T10:50:19.159Z,100.00
2024-03-03T10:52:46.609Z,100.00
2024-03-03T10:55:15.218Z,100.00
2024-03-03T10:57:45.438Z,100.00
2024-03-03T11:00:26.561Z,100.00
2024-03-03T11:02:56.243Z,100.00
2024-03-03T11:05:24.415Z,100.00
2024-03-03T11:07:51.740Z,100.00
2024-03-03T11:10:21.324Z,100.00
2024-03-03T11:12:52.756Z,100.00
2024-03-03T11:15:23.052Z,100.00
2024-03-03T11:18:01.725Z,100.00
2024-03-03T11:20:40.658Z,100.00
2024-03-03T11:23:21.959Z,100.00
2024-03-03T11:26:07.947Z,100.00
2024-03-03T11:28:35.842Z,100.00
2024-03-03T11:31:03.121Z,100.00
2024-03-03T11:33:34.269Z,100.00
2024-03-03T11:36:08.513Z,100.00
2024-03-03T11:38:44.718Z,100.00
2024-03-03T11:41:16.844Z,100.00
2024-03-03T11:43:44.675Z,100.00
2024-03-03T11:46:14.805Z,100.00
2024-03-03T11:48:47.799Z,100.00
2024-03-03T11:51:26.173Z,100.00
2024-03-03T11:54:05.267Z,100.00
2024-03-03T11:56:44.314Z,100.00
2024-03-03T11:59:11.158Z,100.00
2024-03-03T12:01:43.977Z,100.00
2024-03-03T12:04:13.253Z,100.00
2024-03-03T12:06:44.042Z,100.00
2024-03-03T12:09:16.989Z,100.00
2024-03-03T12:11:46.594Z,100.00
2024-03-03T12:14:13.527Z,100.00
2024-03-03T12:16:43.314Z,100.00
2024-03-03T12:19:15.088Z,100.00
2024-03-03T12:21:45.511Z,100.00
2024-03-03T12:24:16.429Z,100.00
2024-03-03T12:26:43.783Z,100.00
2024-03-03T12:29:13.116Z,100.00
2024-03-03T12:31:40.710Z,100.00
2024-03-03T12:34:08.028Z,100.00
2024-03-03T12:36:35.310Z,100.00
2024-03-03T12:39:17.989Z,100.00
2024-03-03T12:41:50.225Z,100.00
2024-03-03T12:44:24.993Z,100.00
2024-03-03T12:46:56.276Z,100.00
2024-03-03T12:49:23.260Z,100.00
2024-03-03T12:51:58.160Z,100.00
2024-03-03T12:54:25.048Z,100.00
2024-03-03T12:56:54.350Z,100.00
2024-03-03T12:59:27.970Z,100.00
2024-03-03T13:01:57.190Z,100.00
2024-03-03T13:04:31.527Z,100.00
2024-03-03T13:07:04.621Z,100.00
2024-03-03T13:09:31.769Z,100.00
2024-03-03T13:12:00.885Z,100.00
2024-03-03T13:14:33.664Z,100.00
2024-03-03T13:17:04.280Z,100.00
2024-03-03T13:19:46.462Z,100.00
2024-03-03T13:22:13.989Z,100.00
2024-03-03T13:25:02.182Z,100.00
2024-03-03T13:27:31.713Z,100.00
2024-03-03T13:30:06.380Z,100.00
2024-03-03T13:32:36.011Z,100.00
2024-03-03T13:35:07.642Z,100.00
2024-03-03T13:37:37.009Z,100.00
2024-03-03T13:40:09.374Z,100.00
2024-03-03T13:42:38.494Z,100.00
2024-03-03T13:45:07.505Z,100.00
2024-03-03T13:47:37.640Z,100.00
2024-03-03T13:50:04.871Z,100.00
2024-03-03T13:52:34.024Z,100.00
2024-03-03T13:55:04.036Z,100.00
2024-03-03T13:57:35.629Z,100.00
2024-03-03T14:00:15.808Z,100.00
2024-03-03T14:02:45.684Z,100.00
2024-03-03T14:05:17.592Z,100.00
2024-03-03T14:07:45.514Z,100.00
2024-03-03T14:10:15.298Z,100.00
2024-03-03T14:12:42.126Z,100.00
2024-03-03T14:15:09.387Z,100.00
2024-03-03T14:17:41.073Z,100.00
2024-03-03T14:20:08.486Z,100.00
2024-03-03T14:22:37.453Z,100.00
2024-03-03T14:25:05.767Z,100.00
2024-03-03T14:27:35.484Z,100.00
2024-03-03T14:30:06.322Z,100.00
2024-03-03T14:32:36.169Z,100.00
2024-03-03T14:35:10.141Z,100.00
2024-03-03T14:37:39.497Z,100.00
2024-03-03T14:40:10.275Z,100.00
2024-03-03T14:42:37.193Z,100.00
2024-03-03T14:45:04.336Z,100.00
2024-03-03T14:47:31.253Z,100.00
2024-03-03T14:50:02.859Z,100.00
2024-03-03T14:52:32.442Z,100.00
2024-03-03T14:54:59.350Z,100.00
2024-03-03T14:57:28.774Z,100.00
2024-03-03T14:59:57.892Z,100.00
2024-03-03T15:02:24.715Z,100.00
2024-03-03T15:04:54.091Z,100.00
2024-03-03T15:07:25.813Z,100.00
2024-03-03T15:09:55.598Z,100.00
2024-03-03T15:12:23.168Z,100.00
2024-03-03T15:14:52.301Z,100.00
2024-03-03T15:17:23.311Z,100.00
2024-03-03T15:19:55.437Z,100.00
2024-03-03T15:22:27.220Z,100.00
2024-03-03T15:24:54.454Z,100.00
2024-03-03T15:27:23.974Z,100.00
2024-03-03T15:29:53.254Z,100.00
2024-03-03T15:32:22.848Z,100.00
2024-03-03T15:34:54.175Z,100.00
2024-03-03T15:37:21.333Z,100.00
2024-03-03T15:39:53.062Z,100.00
2024-03-03T15:42:20.380Z,100.00
2024-03-03T15:44:47.194Z,100.00
2024-03-03T15:47:15.412Z,100.00
2024-03-03T15:49:44.641Z,100.00
2024-03-03T15:52:13.889Z,100.00
2024-03-03T15:54:45.522Z,100.00
2024-03-03T15:57:12.439Z,100.00
2024-03-03T15:59:39.336Z,100.00
2024-03-03T16:02:06.657Z,100.00
2024-03-03T16:04:36.567Z,100.00
2024-03-03T16:07:05.938Z,100.00
2024-03-03T16:09:38.669Z,100.00
2024-03-03T16:12:11.206Z,100.00
2024-03-03T16:14:40.548Z,100.00
2024-03-03T16:17:07.463Z,100.00
2024-03-03T16:19:34.646Z,100.00
2024-03-03T16:22:01.693Z,100.00
2024-03-03T16:24:28.716Z,100.00
2024-03-03T16:26:58.334Z,100.00
2024-03-03T16:29:27.836Z,100.00
2024-03-03T16:31:59.572Z,100.00
2024-03-03T16:34:29.024Z,100.00
2024-03-03T16:36:56.579Z,100.00
2024-03-03T16:39:23.446Z,100.00
2024-03-03T16:41:55.699Z,100.00
2024-03-03T16:44:24.817Z,100.00
2024-03-03T16:46:55.131Z,100.00
2024-03-03T16:49:30.313Z,100.00
2024-03-03T16:51:59.119Z,100.00
2024-03-03T16:54:29.454Z,100.00
2024-03-03T16:56:56.504Z,100.00
2024-03-03T16:59:25.625Z,100.00
2024-03-03T17:01:57.169Z,100.00
2024-03-03T17:04:26.956Z,100.00
2024-03-03T17:06:54.984Z,100.00
2024-03-03T17:09:24.247Z,100.00
2024-03-03T17:11:56.507Z,100.00
2024-03-03T17:14:27.390Z,31.29
2024-03-03T17:17:02.614Z,31.31
2024-03-03T17:19:34.323Z,30.97
2024-03-03T17:22:01.439Z,30.92
2024-03-03T17:24:34.380Z,31.67
2024-03-03T17:27:03.938Z,31.74
2024-03-03T17:29:33.174Z,31.91
2024-03-03T17:32:04.908Z,32.23
2024-03-03T17:34:31.864Z,32.96
2024-03-03T17:36:58.786Z,32.77
2024-03-03T17:39:26.118Z,32.96
2024-03-03T17:41:53.033Z,32.70
2024-03-03T17:44:20.269Z,33.39
2024-03-03T17:46:47.192Z,33.63
2024-03-03T17:49:14.193Z,34.01
2024-03-03T17:51:41.216Z,33.73
2024-03-03T17:54:13.060Z,33.70
2024-03-03T17:56:42.622Z,34.32
2024-03-03T17:59:09.581Z,35.02
2024-03-03T18:01:38.782Z,34.99
2024-03-03T18:04:05.938Z,35.05
2024-03-03T18:06:34.740Z,35.42
2024-03-03T18:09:04.276Z,35.05
2024-03-03T18:11:31.522Z,34.36
2024-03-03T18:13:59.949Z,34.46
2024-03-03T18:16:29.236Z,34.62
2024-03-03T18:18:56.818Z,34.64
2024-03-03T18:21:24.418Z,34.60
2024-03-03T18:23:51.719Z,34.61
2024-03-03T18:26:19.874Z,34.65
2024-03-03T18:28:49.380Z,34.54
2024-03-03T18:31:17.487Z,34.35
2024-03-03T18:33:44.762Z,34.53
2024-03-03T18:36:15.546Z,34.39
2024-03-03T18:38:42.644Z,34.99
2024-03-03T18:41:10.094Z,35.29
2024-03-03T18:43:38.294Z,34.54
2024-03-03T18:46:08.209Z,100.00
2024-03-03T18:48:35.187Z,100.00
2024-03-03T18:51:02.781Z,100.00
2024-03-03T18:53:29.947Z,100.00
2024-03-03T18:56:10.352Z,100.00
2024-03-03T18:58:38.824Z,100.00
2024-03-03T19:01:05.815Z,100.00
2024-03-03T19:03:34.874Z,100.00
2024-03-03T19:06:01.811Z,100.00
2024-03-03T19:08:28.641Z,100.00
2024-03-03T19:10:58.155Z,100.00
2024-03-03T19:13:25.278Z,100.00
2024-03-03T19:15:54.675Z,100.00
2024-03-03T19:18:21.819Z,100.00
2024-03-03T19:20:48.889Z,100.00
2024-03-03T19:23:18.636Z,100.00
2024-03-03T19:25:46.492Z,100.00
2024-03-03T19:28:13.432Z,100.00
2024-03-03T19:34:05.997Z,100.00
2024-03-03T19:36:39.073Z,100.00
2024-03-03T19:39:06.066Z,100.00
2024-03-03T19:41:32.989Z,100.00
2024-03-03T19:44:00.685Z,100.00
2024-03-03T19:46:27.753Z,100.00
2024-03-03T19:48:55.659Z,100.00
2024-03-03T19:51:22.699Z,100.00
2024-03-03T19:53:50.806Z,100.00
2024-03-03T19:56:17.800Z,100.00
2024-03-03T19:58:44.765Z,100.00
2024-03-03T20:01:11.975Z,100.00
2024-03-03T20:03:41.177Z,100.00
2024-03-03T20:06:10.444Z,100.00
2024-03-03T20:08:38.576Z,100.00
2024-03-03T20:11:08.384Z,100.00
2024-03-03T20:13:35.454Z,100.00
2024-03-03T20:16:02.394Z,100.00
2024-03-03T20:18:29.247Z,100.00
2024-03-03T20:21:00.023Z,100.00
2024-03-03T20:23:29.960Z,100.00
2024-03-03T20:25:59.291Z,100.00
2024-03-03T20:28:26.376Z,100.00
2024-03-03T20:30:53.447Z,100.00
2024-03-03T20:33:21.511Z,100.00
2024-03-03T20:35:50.435Z,100.00
2024-03-03T20:38:17.936Z,100.00
2024-03-03T20:40:49.582Z,100.00
2024-03-03T20:43:17.429Z,100.00
2024-03-03T20:45:44.696Z,100.00
2024-03-03T20:48:12.441Z,100.00
2024-03-03T20:50:39.440Z,100.00
2024-03-03T20:53:08.566Z,100.00
2024-03-03T20:55:35.577Z,100.00
2024-03-03T20:58:02.896Z,100.00
2024-03-03T21:00:29.802Z,100.00
2024-03-03T21:02:58.737Z,100.00
2024-03-03T21:05:26.561Z,100.00
2024-03-03T21:07:53.433Z,100.00
2024-03-03T21:10:23.284Z,100.00
2024-03-03T21:12:50.521Z,100.00
2024-03-03T21:15:17.657Z,100.00
2024-03-03T21:17:44.557Z,100.00
2024-03-03T21:20:14.637Z,100.00
2024-03-03T21:22:42.693Z,100.00
2024-03-03T21:25:11.191Z,100.00
2024-03-03T21:27:40.360Z,100.00
2024-03-03T21:30:08.274Z,100.00
2024-03-03T21:32:38.683Z,100.00
2024-03-03T21:35:08.513Z,100.00
2024-03-03T21:37:35.846Z,100.00
2024-03-03T21:40:02.950Z,100.00
2024-03-03T21:42:29.919Z,100.00
2024-03-03T21:44:57.032Z,100.00
2024-03-03T21:47:26.718Z,100.00
2024-03-03T21:49:56.109Z,100.00
2024-03-03T21:52:23.032Z,100.00
2024-03-03T21:54:50.053Z,100.00
2024-03-03T21:57:19.148Z,100.00
2024-03-03T21:59:46.081Z,100.00
2024-03-03T22:02:13.191Z,100.00
2024-03-03T22:04:40.295Z,100.00
2024-03-03T22:07:12.117Z,100.00
2024-03-03T22:09:39.274Z,100.00
2024-03-03T22:12:07.481Z,100.00
2024-03-03T22:14:36.097Z,100.00
2024-03-03T22:17:04.795Z,100.00
2024-03-03T22:19:31.833Z,100.00
2024-03-03T22:21:58.741Z,100.00
2024-03-03T22:24:25.635Z,100.00
2024-03-03T22:26:52.509Z,100.00
2024-03-03T22:29:19.429Z,100.00
2024-03-03T22:31:46.423Z,100.00
2024-03-03T22:34:14.219Z,100.00
2024-03-03T22:36:43.397Z,100.00
2024-03-03T22:39:10.248Z,100.00
2024-03-03T22:41:39.356Z,100.00
2024-03-03T22:44:06.253Z,100.00
2024-03-03T22:46:34.027Z,100.00
2024-03-03T22:49:03.961Z,100.00
2024-03-03T22:51:33.271Z,100.00
2024-03-03T22:54:00.351Z,100.00
2024-03-03T22:56:27.297Z,100.00
2024-03-03T22:58:54.379Z,100.00
2024-03-03T23:01:21.483Z,100.00
2024-03-03T23:03:48.390Z,100.00
2024-03-03T23:06:15.487Z,100.00
2024-03-03T23:08:42.338Z,100.00
2024-03-03T23:11:09.244Z,100.00
2024-03-03T23:13:38.425Z,100.00
2024-03-03T23:16:07.394Z,100.00
2024-03-03T23:18:34.376Z,100.00
2024-03-03T23:21:01.296Z,100.00
2024-03-03T23:23:28.179Z,100.00
2024-03-03T23:25:55.585Z,100.00
2024-03-03T23:28:22.575Z,100.00
2024-03-03T23:30:49.401Z,100.00
2024-03-03T23:33:18.578Z,100.00
2024-03-03T23:35:47.295Z,100.00
2024-03-03T23:38:14.178Z,100.00
2024-03-03T23:40:41.041Z,100.00
2024-03-03T23:43:07.939Z,100.00
2024-03-03T23:45:34.892Z,100.00
2024-03-03T23:48:01.808Z,100.00
2024-03-03T23:50:28.727Z,100.00
2024-03-03T23:52:58.103Z,100.00
2024-03-03T23:55:25.208Z,100.00
2024-03-03T23:57:52.094Z,100.00
